HMS Monmouth — ZGAL8 — position and weather

sailwx.info

Track history (hours):
 
Tides and Currents Weather Stations Pressure Air Temp Water Temp Dewpoint Dewpoint Depression Visibility Wind Speed Wind Dir Waves Ship Positions

HMS Monmouth

Last reported at 2017-Aug-25 16:32 UTC. Time now 2017-Sep-22 19:15 UTC.
Position N 41°08' E 009°33'.
Warning: this ship's position is 28 days out of date.

; draft 7.5 m.

Type: Ship. MMSI: 234600616.

Date/timePositionNaut miles runAvg speedWind from/ knotsBaromVisibWave heightAir tempDewpointWater temp
2017-Aug-25 16:32N 41°08' E 009°33'0 8.6
2017-Aug-25 16:30N 41°08' E 009°33'10 9.6
2017-Aug-25 15:30N 41°00' E 009°40'1 0.1
2017-Aug-25 11:08N 41°01' E 009°40'218.0
2017-Aug-25 11:00N 41°03' E 009°39'279 5.7
2017-Aug-23 09:49N 38°40' E 014°52'514.2
2017-Aug-23 09:27N 38°37' E 014°58'714.2
2017-Aug-23 08:56N 38°33' E 015°06'614.4
2017-Aug-23 08:30N 38°30' E 015°12'714.2
2017-Aug-23 08:01N 38°27' E 015°20'5 9.5
2017-Aug-23 07:30N 38°24' E 015°26'816.7
2017-Aug-23 07:00N 38°20' E 015°35'713.6
2017-Aug-23 06:30N 38°16' E 015°41'713.2
2017-Aug-23 06:00N 38°12' E 015°34'1 1.0
2017-Aug-23 05:12N 38°11' E 015°33'0 0.0
2017-Aug-23 04:57N 38°11' E 015°33'0 0.0
2017-Aug-23 04:18N 38°11' E 015°33'0 0.0
2017-Aug-23 04:00N 38°11' E 015°33'0 0.0
2017-Aug-23 03:30N 38°11' E 015°33'0 0.0
2017-Aug-23 03:00N 38°11' E 015°33'0 0.0
2017-Aug-23 02:30N 38°11' E 015°33'0 0.0
2017-Aug-23 02:00N 38°11' E 015°33'0 0.0
2017-Aug-23 01:27N 38°11' E 015°33'0 0.0
2017-Aug-23 00:51N 38°11' E 015°33'0 0.0
2017-Aug-23 00:30N 38°11' E 015°33'0 0.0
2017-Aug-23 00:00N 38°11' E 015°33'0 0.0
2017-Aug-22 23:27N 38°11' E 015°33'0 0.0
2017-Aug-22 22:54N 38°11' E 015°33'0 0.0
2017-Aug-22 22:24N 38°11' E 015°33'0 0.0
2017-Aug-22 21:57N 38°11' E 015°33'0 0.0
2017-Aug-22 21:30N 38°11' E 015°33'0 0.0
2017-Aug-22 20:51N 38°11' E 015°33'0 0.0
2017-Aug-22 20:27N 38°11' E 015°33'0 0.0
2017-Aug-22 19:54N 38°11' E 015°33'0 0.0
2017-Aug-22 19:30N 38°11' E 015°33'0 0.0
2017-Aug-22 18:57N 38°11' E 015°33'0 0.0
2017-Aug-22 18:24N 38°11' E 015°33'0 0.0
2017-Aug-22 17:54N 38°11' E 015°33'0 0.0
2017-Aug-22 17:30N 38°11' E 015°33'0 0.0
2017-Aug-22 16:57N 38°11' E 015°33'0 0.0
2017-Aug-22 16:30N 38°11' E 015°33'0 0.0
2017-Aug-22 15:57N 38°11' E 015°33'0 0.0
2017-Aug-22 15:30N 38°11' E 015°33'0 0.0
2017-Aug-22 14:54N 38°11' E 015°33'0 0.0
2017-Aug-22 14:30N 38°11' E 015°33'0 0.0
2017-Aug-22 14:00N 38°11' E 015°33'  
2017-Aug-16 12:44N 37°21' E 023°26'311.7
2017-Aug-16 12:30N 37°19' E 023°23'13 2.0
2017-Aug-16 06:01N 37°29' E 023°34'018.8
2017-Aug-16 06:00N 37°29' E 023°34'713.8
2017-Aug-16 05:30N 37°32' E 023°26'  
Track history (hours):
 
Tides and Currents Weather Stations Pressure Air Temp Water Temp Dewpoint Dewpoint Depression Visibility Wind Speed Wind Dir Waves Ship Positions

HMS Monmouth

Last reported at 2017-Aug-25 16:32 UTC. Time now 2017-Sep-22 19:15 UTC.
Position N 41°08' E 009°33'.
Warning: this ship's position is 28 days out of date.

; draft 7.5 m.

Type: Ship. MMSI: 234600616.

Date/timePositionNaut miles runAvg speedWind from/ knotsBaromVisibWave heightAir tempDewpointWater temp
2017-Aug-25 16:32N 41°08' E 009°33'0 8.6
2017-Aug-25 16:30N 41°08' E 009°33'10 9.6
2017-Aug-25 15:30N 41°00' E 009°40'1 0.1
2017-Aug-25 11:08N 41°01' E 009°40'218.0
2017-Aug-25 11:00N 41°03' E 009°39'279 5.7
2017-Aug-23 09:49N 38°40' E 014°52'514.2
2017-Aug-23 09:27N 38°37' E 014°58'714.2
2017-Aug-23 08:56N 38°33' E 015°06'614.4
2017-Aug-23 08:30N 38°30' E 015°12'714.2
2017-Aug-23 08:01N 38°27' E 015°20'5 9.5
2017-Aug-23 07:30N 38°24' E 015°26'816.7
2017-Aug-23 07:00N 38°20' E 015°35'713.6
2017-Aug-23 06:30N 38°16' E 015°41'713.2
2017-Aug-23 06:00N 38°12' E 015°34'1 1.0
2017-Aug-23 05:12N 38°11' E 015°33'0 0.0
2017-Aug-23 04:57N 38°11' E 015°33'0 0.0
2017-Aug-23 04:18N 38°11' E 015°33'0 0.0
2017-Aug-23 04:00N 38°11' E 015°33'0 0.0
2017-Aug-23 03:30N 38°11' E 015°33'0 0.0
2017-Aug-23 03:00N 38°11' E 015°33'0 0.0
2017-Aug-23 02:30N 38°11' E 015°33'0 0.0
2017-Aug-23 02:00N 38°11' E 015°33'0 0.0
2017-Aug-23 01:27N 38°11' E 015°33'0 0.0
2017-Aug-23 00:51N 38°11' E 015°33'0 0.0
2017-Aug-23 00:30N 38°11' E 015°33'0 0.0
2017-Aug-23 00:00N 38°11' E 015°33'0 0.0
2017-Aug-22 23:27N 38°11' E 015°33'0 0.0
2017-Aug-22 22:54N 38°11' E 015°33'0 0.0
2017-Aug-22 22:24N 38°11' E 015°33'0 0.0
2017-Aug-22 21:57N 38°11' E 015°33'0 0.0
2017-Aug-22 21:30N 38°11' E 015°33'0 0.0
2017-Aug-22 20:51N 38°11' E 015°33'0 0.0
2017-Aug-22 20:27N 38°11' E 015°33'0 0.0
2017-Aug-22 19:54N 38°11' E 015°33'0 0.0
2017-Aug-22 19:30N 38°11' E 015°33'0 0.0
2017-Aug-22 18:57N 38°11' E 015°33'0 0.0
2017-Aug-22 18:24N 38°11' E 015°33'0 0.0
2017-Aug-22 17:54N 38°11' E 015°33'0 0.0
2017-Aug-22 17:30N 38°11' E 015°33'0 0.0
2017-Aug-22 16:57N 38°11' E 015°33'0 0.0
2017-Aug-22 16:30N 38°11' E 015°33'0 0.0
2017-Aug-22 15:57N 38°11' E 015°33'0 0.0
2017-Aug-22 15:30N 38°11' E 015°33'0 0.0
2017-Aug-22 14:54N 38°11' E 015°33'0 0.0
2017-Aug-22 14:30N 38°11' E 015°33'0 0.0
2017-Aug-22 14:00N 38°11' E 015°33'  
2017-Aug-16 12:44N 37°21' E 023°26'311.7
2017-Aug-16 12:30N 37°19' E 023°23'13 2.0
2017-Aug-16 06:01N 37°29' E 023°34'018.8
2017-Aug-16 06:00N 37°29' E 023°34'713.8
2017-Aug-16 05:30N 37°32' E 023°26'  

Dump ship's entire track history